createdAt,value
2023-03-11T00:00:15.870Z,995.37
2023-03-11T00:02:13.862Z,995.35
2023-03-11T00:02:54.323Z,995.29
2023-03-11T00:03:35.703Z,995.39
2023-03-11T00:04:16.246Z,995.42
2023-03-11T00:04:56.797Z,995.43
2023-03-11T00:05:37.419Z,995.41
2023-03-11T00:06:17.855Z,995.34
2023-03-11T00:06:58.355Z,995.44
2023-03-11T00:07:39.866Z,995.45
2023-03-11T00:08:20.332Z,995.49
2023-03-11T00:09:00.884Z,995.49
2023-03-11T00:09:41.421Z,995.51
2023-03-11T00:10:21.924Z,995.55
2023-03-11T00:11:02.447Z,995.57
2023-03-11T00:11:42.972Z,995.62
2023-03-11T00:13:41.146Z,995.6
2023-03-11T00:14:22.324Z,995.49
2023-03-11T00:15:02.884Z,995.52
2023-03-11T00:15:43.416Z,995.56
2023-03-11T00:16:23.999Z,995.6
2023-03-11T00:17:04.466Z,995.57
2023-03-11T00:17:45.014Z,995.63
2023-03-11T00:21:01.332Z,995.51
2023-03-11T00:21:42.541Z,995.5
2023-03-11T00:22:23.072Z,995.45
2023-03-11T00:23:03.622Z,995.45
2023-03-11T00:23:44.089Z,995.48
2023-03-11T00:24:24.612Z,995.46
2023-03-11T00:25:05.133Z,995.53
2023-03-11T00:25:45.664Z,995.46
2023-03-11T00:26:26.202Z,995.48
2023-03-11T00:27:06.788Z,995.47
2023-03-11T00:27:47.302Z,995.48
2023-03-11T00:28:27.861Z,995.49
2023-03-11T00:30:25.959Z,995.57
2023-03-11T00:31:06.470Z,995.58
2023-03-11T00:31:47.000Z,995.55
2023-03-11T00:32:27.592Z,995.57
2023-03-11T00:33:08.050Z,995.6
2023-03-11T00:33:48.575Z,995.62
2023-03-11T00:34:29.075Z,995.67
2023-03-11T00:35:09.612Z,995.67
2023-03-11T00:35:50.228Z,995.65
2023-03-11T00:36:30.705Z,995.57
2023-03-11T00:37:11.223Z,995.6
2023-03-11T00:37:51.802Z,995.62
2023-03-11T00:38:34.109Z,995.6
2023-03-11T00:39:14.555Z,995.56
2023-03-11T00:41:27.613Z,995.54
2023-03-11T00:42:08.117Z,995.58
2023-03-11T00:42:48.621Z,995.64
2023-03-11T00:43:29.132Z,995.64
2023-03-11T00:44:10.299Z,995.68
2023-03-11T00:44:50.855Z,995.65
2023-03-11T00:45:32.174Z,995.61
2023-03-11T00:46:12.741Z,995.66
2023-03-11T00:46:53.276Z,995.66
2023-03-11T00:47:33.797Z,995.7
2023-03-11T00:49:26.885Z,995.7
2023-03-11T00:50:07.505Z,995.76
2023-03-11T00:50:48.741Z,995.72
2023-03-11T00:51:33.825Z,995.69
2023-03-11T00:52:11.774Z,995.74
2023-03-11T00:52:52.281Z,995.77
2023-03-11T00:53:32.812Z,995.84
2023-03-11T00:54:13.348Z,995.85
2023-03-11T00:54:53.784Z,995.77
2023-03-11T00:56:47.632Z,995.83
2023-03-11T00:57:28.202Z,995.82
2023-03-11T00:58:08.712Z,995.79
2023-03-11T00:58:50.799Z,995.81
2023-03-11T01:01:08.870Z,995.77
2023-03-11T01:01:49.843Z,995.84
2023-03-11T01:02:30.898Z,995.83
2023-03-11T01:03:11.429Z,995.85
2023-03-11T01:05:29.285Z,995.87
2023-03-11T01:06:10.470Z,995.84
2023-03-11T01:06:50.996Z,995.92
2023-03-11T01:07:31.512Z,995.9
2023-03-11T01:08:12.037Z,995.89
2023-03-11T01:08:52.587Z,995.89
2023-03-11T01:09:33.176Z,995.85
2023-03-11T01:10:13.708Z,995.81
2023-03-11T01:10:54.247Z,995.78
2023-03-11T01:11:34.757Z,995.8
2023-03-11T01:13:48.340Z,995.99
2023-03-11T01:14:29.407Z,996.01
2023-03-11T01:15:09.933Z,996.04
2023-03-11T01:15:50.479Z,996.03
2023-03-11T01:16:30.953Z,996.05
2023-03-11T01:17:11.517Z,995.97
2023-03-11T01:17:52.042Z,996.02
2023-03-11T01:18:32.545Z,996.09
2023-03-11T01:19:13.093Z,996.17
2023-03-11T01:19:53.636Z,996.13
2023-03-11T01:20:34.167Z,996.09
2023-03-11T01:21:14.685Z,996.09
2023-03-11T01:21:55.910Z,996.13
2023-03-11T01:22:36.455Z,996.15
2023-03-11T01:23:17.004Z,996.11
2023-03-11T01:23:57.571Z,996.1
2023-03-11T01:27:00.938Z,996.19
2023-03-11T01:27:41.421Z,996.2
2023-03-11T01:28:21.961Z,996.1
2023-03-11T01:29:02.470Z,996.09
2023-03-11T01:29:43.038Z,995.99
2023-03-11T01:30:23.569Z,996.02
2023-03-11T01:31:04.129Z,996.06
2023-03-11T01:31:44.621Z,995.93
2023-03-11T01:32:25.246Z,995.96
2023-03-11T01:33:05.715Z,995.91
2023-03-11T01:33:46.238Z,995.99
2023-03-11T01:34:26.753Z,996.03
2023-03-11T01:35:07.258Z,996.05
2023-03-11T01:35:47.810Z,996
2023-03-11T01:36:28.307Z,996.01
2023-03-11T01:37:08.911Z,996.07
2023-03-11T01:37:49.439Z,996.02
2023-03-11T01:38:29.954Z,995.92
2023-03-11T01:39:10.466Z,995.88
2023-03-11T01:39:50.989Z,995.92
2023-03-11T01:43:44.718Z,995.93
2023-03-11T01:44:25.198Z,995.92
2023-03-11T01:45:05.729Z,995.94
2023-03-11T01:45:46.246Z,995.99
2023-03-11T01:46:26.865Z,996.03
2023-03-11T01:47:07.293Z,995.96
2023-03-11T01:47:47.793Z,996.04
2023-03-11T01:48:28.316Z,996.07
2023-03-11T01:49:08.838Z,996.02
2023-03-11T01:49:50.054Z,996.04
2023-03-11T01:50:30.580Z,996.1
2023-03-11T01:51:11.073Z,996.08
2023-03-11T01:51:51.605Z,996.13
2023-03-11T01:52:32.116Z,996.14
2023-03-11T01:53:12.688Z,996.16
2023-03-11T01:53:53.198Z,996.21
2023-03-11T01:54:33.714Z,996.26
2023-03-11T01:55:14.811Z,996.3
2023-03-11T01:55:55.328Z,996.32
2023-03-11T01:56:36.550Z,996.31
2023-03-11T01:57:17.080Z,996.33
2023-03-11T01:57:57.619Z,996.35
2023-03-11T01:58:38.097Z,996.36
2023-03-11T01:59:18.661Z,996.3
2023-03-11T01:59:59.157Z,996.27
2023-03-11T02:00:39.664Z,996.31
2023-03-11T02:01:20.238Z,996.3
2023-03-11T02:02:00.753Z,996.33
2023-03-11T02:05:03.267Z,996.42
2023-03-11T02:05:43.862Z,996.44
2023-03-11T02:06:24.413Z,996.46
2023-03-11T02:07:04.904Z,996.43
2023-03-11T02:07:45.435Z,996.44
2023-03-11T02:08:25.968Z,996.43
2023-03-11T02:09:06.475Z,996.38
2023-03-11T02:09:46.995Z,996.4
2023-03-11T02:10:28.267Z,996.39
2023-03-11T02:11:08.814Z,996.37
2023-03-11T02:11:49.343Z,996.34
2023-03-11T02:12:29.847Z,996.33
2023-03-11T02:13:11.263Z,996.29
2023-03-11T02:13:51.772Z,996.26
2023-03-11T02:14:32.320Z,996.2
2023-03-11T02:15:12.887Z,996.17
2023-03-11T02:15:53.482Z,996.2
2023-03-11T02:16:34.078Z,996.14
2023-03-11T02:17:14.579Z,996.13
2023-03-11T02:17:55.074Z,996.09
2023-03-11T02:18:35.663Z,996.19
2023-03-11T02:19:16.180Z,996.1
2023-03-11T02:19:56.694Z,996.17
2023-03-11T02:20:37.212Z,996.15
2023-03-11T02:21:17.741Z,996.13
2023-03-11T02:21:58.249Z,996.12
2023-03-11T02:22:38.772Z,996.18
2023-03-11T02:24:37.980Z,996.28
2023-03-11T02:25:18.521Z,996.29
2023-03-11T02:26:03.718Z,996.22
2023-03-11T02:26:45.971Z,996.15
2023-03-11T02:29:00.169Z,996.13
2023-03-11T02:29:40.732Z,996.12
2023-03-11T02:30:22.244Z,996.01
2023-03-11T02:31:02.710Z,995.98
2023-03-11T02:33:18.528Z,996.13
2023-03-11T02:33:59.035Z,996.09
2023-03-11T02:34:39.568Z,996.09
2023-03-11T02:35:20.087Z,996.15
2023-03-11T02:36:00.677Z,996.18
2023-03-11T02:37:59.766Z,996.15
2023-03-11T02:38:40.286Z,996.11
2023-03-11T02:39:20.805Z,996.14
2023-03-11T02:40:01.321Z,996.17
2023-03-11T02:40:41.827Z,996.21
2023-03-11T02:41:22.375Z,996.18
2023-03-11T02:42:02.893Z,996.14
2023-03-11T02:42:43.417Z,996.12
2023-03-11T02:43:23.930Z,996.14
2023-03-11T02:44:04.443Z,996.13
2023-03-11T02:44:44.993Z,996.17
2023-03-11T02:45:25.495Z,996.15
2023-03-11T02:46:05.982Z,996.12
2023-03-11T02:46:47.550Z,996.12
2023-03-11T02:47:27.995Z,996.12
2023-03-11T02:48:08.533Z,996.08
2023-03-11T02:48:49.043Z,996.15
2023-03-11T02:49:29.578Z,996.16
2023-03-11T02:50:10.118Z,996.17
2023-03-11T02:50:50.662Z,996.18
2023-03-11T02:51:31.160Z,996.23
2023-03-11T02:52:11.652Z,996.19
2023-03-11T02:52:52.181Z,996.22
2023-03-11T02:53:32.697Z,996.23
2023-03-11T02:54:13.221Z,996.2
2023-03-11T02:54:53.730Z,996.19
2023-03-11T02:55:34.251Z,996.17
2023-03-11T02:56:14.799Z,996.23
2023-03-11T02:56:55.300Z,996.27
2023-03-11T02:57:35.832Z,996.32
2023-03-11T02:58:16.348Z,996.3
2023-03-11T02:58:56.851Z,996.31
2023-03-11T02:59:38.322Z,996.32
2023-03-11T03:00:18.859Z,996.35
2023-03-11T03:01:00.317Z,996.35
2023-03-11T03:01:40.842Z,996.36
2023-03-11T03:02:21.345Z,996.35
2023-03-11T03:03:01.888Z,996.35
2023-03-11T03:03:42.430Z,996.36
2023-03-11T03:04:23.034Z,996.34
2023-03-11T03:05:03.492Z,996.33
2023-03-11T03:05:44.002Z,996.37
2023-03-11T03:06:24.529Z,996.41
2023-03-11T03:07:05.084Z,996.39
2023-03-11T03:07:45.593Z,996.37
2023-03-11T03:08:26.116Z,996.37
2023-03-11T03:09:06.630Z,996.33
2023-03-11T03:09:47.155Z,996.3
2023-03-11T03:10:27.762Z,996.34
2023-03-11T03:11:08.209Z,996.37
2023-03-11T03:11:48.728Z,996.34
2023-03-11T03:12:29.249Z,996.35
2023-03-11T03:13:09.770Z,996.33
2023-03-11T03:13:50.289Z,996.32
2023-03-11T03:14:30.799Z,996.32
2023-03-11T03:15:11.342Z,996.33
2023-03-11T03:15:51.879Z,996.31
2023-03-11T03:16:32.394Z,996.3
2023-03-11T03:17:13.255Z,996.35
2023-03-11T03:17:53.660Z,996.3
2023-03-11T03:18:34.154Z,996.32
2023-03-11T03:19:15.470Z,996.32
2023-03-11T03:19:56.030Z,996.33
2023-03-11T03:20:36.540Z,996.28
2023-03-11T03:21:17.056Z,996.35
2023-03-11T03:21:57.574Z,996.35
2023-03-11T03:22:38.090Z,996.34
2023-03-11T03:23:18.615Z,996.34
2023-03-11T03:23:59.143Z,996.34
2023-03-11T03:24:39.672Z,996.33
2023-03-11T03:25:20.221Z,996.34
2023-03-11T03:26:00.755Z,996.37
2023-03-11T03:26:41.341Z,996.37
2023-03-11T03:27:22.564Z,996.44
2023-03-11T03:28:03.110Z,996.41
2023-03-11T03:28:43.609Z,996.41
2023-03-11T03:29:24.139Z,996.41
2023-03-11T03:30:04.669Z,996.37
2023-03-11T03:30:45.201Z,996.46
2023-03-11T03:31:25.840Z,996.46
2023-03-11T03:32:06.334Z,996.48
2023-03-11T03:32:46.813Z,996.51
2023-03-11T03:35:48.162Z,996.58
2023-03-11T03:36:29.422Z,996.55
2023-03-11T03:37:09.972Z,996.63
2023-03-11T03:37:50.488Z,996.6
2023-03-11T03:38:31.013Z,996.62
2023-03-11T03:39:11.521Z,996.62
2023-03-11T03:39:52.038Z,996.67
2023-03-11T03:40:32.560Z,996.69
2023-03-11T03:41:13.101Z,996.72
2023-03-11T03:41:53.615Z,996.75
2023-03-11T03:42:34.136Z,996.69
2023-03-11T03:43:14.670Z,996.72
2023-03-11T03:43:55.168Z,996.74
2023-03-11T03:44:35.722Z,996.72
2023-03-11T03:45:16.235Z,996.74
2023-03-11T03:45:56.763Z,996.73
2023-03-11T03:46:38.045Z,996.78
2023-03-11T03:47:18.570Z,996.78
2023-03-11T03:47:59.188Z,996.79
2023-03-11T03:48:39.746Z,996.82
2023-03-11T03:49:20.245Z,996.8
2023-03-11T03:50:00.785Z,996.81
2023-03-11T03:50:41.322Z,996.81
2023-03-11T03:51:21.814Z,996.8
2023-03-11T03:52:02.334Z,996.87
2023-03-11T03:52:42.857Z,996.9
2023-03-11T03:53:23.396Z,996.83
2023-03-11T03:54:03.945Z,996.85
2023-03-11T03:54:44.952Z,996.82
2023-03-11T03:55:25.491Z,996.79
2023-03-11T03:56:06.006Z,996.81
2023-03-11T03:56:46.537Z,996.82
2023-03-11T03:58:45.420Z,996.79
2023-03-11T03:59:25.930Z,996.79
2023-03-11T04:00:06.443Z,996.79
2023-03-11T04:00:46.966Z,996.8
2023-03-11T04:01:27.482Z,996.74
2023-03-11T04:02:08.067Z,996.76
2023-03-11T04:02:48.518Z,996.78
2023-03-11T04:03:29.110Z,996.78
2023-03-11T04:04:09.629Z,996.73
2023-03-11T04:04:50.100Z,996.77
2023-03-11T04:05:30.648Z,996.73
2023-03-11T04:07:28.790Z,996.75
2023-03-11T04:08:09.303Z,996.73
2023-03-11T04:08:49.817Z,996.72
2023-03-11T04:09:30.342Z,996.76
2023-03-11T04:10:10.860Z,996.77
2023-03-11T04:10:52.287Z,996.75
2023-03-11T04:11:32.793Z,996.76
2023-03-11T04:12:13.321Z,996.79
2023-03-11T04:12:53.838Z,996.78
2023-03-11T04:13:34.388Z,996.81
2023-03-11T04:14:14.877Z,996.79
2023-03-11T04:14:55.394Z,996.79
2023-03-11T04:17:57.271Z,996.79
2023-03-11T04:18:37.806Z,996.81
2023-03-11T04:19:18.326Z,996.82
2023-03-11T04:19:58.851Z,996.85
2023-03-11T04:20:39.355Z,996.87
2023-03-11T04:21:19.878Z,996.9
2023-03-11T04:22:00.392Z,996.94
2023-03-11T04:22:40.919Z,996.92
2023-03-11T04:23:21.456Z,996.91
2023-03-11T04:24:01.971Z,996.89
2023-03-11T04:24:43.363Z,996.89
2023-03-11T04:25:23.875Z,996.88
2023-03-11T04:26:04.381Z,996.81
2023-03-11T04:26:44.896Z,996.82
2023-03-11T04:27:25.421Z,996.77
2023-03-11T04:28:06.748Z,996.76
2023-03-11T04:28:47.265Z,996.76
2023-03-11T04:29:27.820Z,996.76
2023-03-11T04:30:08.339Z,996.73
2023-03-11T04:30:49.591Z,996.78
2023-03-11T04:31:30.077Z,996.78
2023-03-11T04:32:10.594Z,996.8
2023-03-11T04:34:23.346Z,996.78
2023-03-11T04:35:03.820Z,996.81
2023-03-11T04:35:45.180Z,996.84
2023-03-11T04:36:25.694Z,996.86
2023-03-11T04:37:06.236Z,996.84
2023-03-11T04:39:19.213Z,996.82
2023-03-11T04:39:59.757Z,996.85
2023-03-11T04:40:40.263Z,996.82
2023-03-11T04:41:21.369Z,996.84
2023-03-11T04:42:03.947Z,996.83
2023-03-11T04:42:42.442Z,996.84
2023-03-11T04:43:22.978Z,996.83
2023-03-11T04:44:03.523Z,996.83
2023-03-11T04:44:44.030Z,996.85
2023-03-11T04:45:24.557Z,996.86
2023-03-11T04:46:05.881Z,996.84
2023-03-11T04:46:46.407Z,996.86
2023-03-11T04:48:44.305Z,996.9
2023-03-11T04:49:24.844Z,996.88
2023-03-11T04:50:05.391Z,996.89
2023-03-11T04:50:45.904Z,996.88
2023-03-11T04:51:26.430Z,996.9
2023-03-11T04:52:06.973Z,996.89
2023-03-11T04:52:47.459Z,996.88
2023-03-11T04:53:28.520Z,996.89
2023-03-11T04:54:09.106Z,996.91
2023-03-11T04:54:49.621Z,996.92
2023-03-11T04:55:30.185Z,996.88
2023-03-11T04:56:10.721Z,996.88
2023-03-11T04:56:51.240Z,996.91
2023-03-11T04:57:32.340Z,996.93
2023-03-11T04:58:12.866Z,996.91
2023-03-11T04:58:54.235Z,996.94
2023-03-11T04:59:34.903Z,996.92
2023-03-11T05:00:15.439Z,996.89
2023-03-11T05:00:55.958Z,996.94
2023-03-11T05:01:36.555Z,996.94
2023-03-11T05:02:16.992Z,996.9
2023-03-11T05:02:57.575Z,996.92
2023-03-11T05:03:38.046Z,996.93
2023-03-11T05:04:18.587Z,996.96
2023-03-11T05:04:59.176Z,997.04
2023-03-11T05:05:39.754Z,997.07
2023-03-11T05:06:20.117Z,997.06
2023-03-11T05:07:00.678Z,997.09
2023-03-11T05:07:41.216Z,997.06
2023-03-11T05:08:22.723Z,997.06
2023-03-11T05:09:03.232Z,997.09
2023-03-11T05:09:43.733Z,997.12
2023-03-11T05:10:24.270Z,997.1
2023-03-11T05:11:04.797Z,997.12
2023-03-11T05:11:45.298Z,997.08
2023-03-11T05:12:25.825Z,997.1
2023-03-11T05:13:07.011Z,997.09
2023-03-11T05:13:48.224Z,997.1
2023-03-11T05:14:28.768Z,997.08
2023-03-11T05:15:09.343Z,997.07
2023-03-11T05:15:49.880Z,997.06
2023-03-11T05:16:30.356Z,997.05
2023-03-11T05:17:10.871Z,997.04
2023-03-11T05:17:52.281Z,997.05
2023-03-11T05:18:32.793Z,997.05
2023-03-11T05:19:13.342Z,997.08
2023-03-11T05:19:53.865Z,997.09
2023-03-11T05:20:34.378Z,997.12
2023-03-11T05:21:14.937Z,997.16
2023-03-11T05:21:55.417Z,997.17
2023-03-11T05:22:35.967Z,997.18
2023-03-11T05:23:16.534Z,997.15
2023-03-11T05:23:57.060Z,997.15
2023-03-11T05:24:37.645Z,997.11
2023-03-11T05:25:18.713Z,997.12
2023-03-11T05:27:47.314Z,997.16
2023-03-11T05:28:28.703Z,997.15
2023-03-11T05:29:09.223Z,997.17
2023-03-11T05:29:49.735Z,997.17
2023-03-11T05:30:30.287Z,997.19
2023-03-11T05:31:10.854Z,997.21
2023-03-11T05:33:08.732Z,997.16
2023-03-11T05:33:49.284Z,997.15
2023-03-11T05:34:30.650Z,997.11
2023-03-11T05:35:10.943Z,997.18
2023-03-11T05:35:51.502Z,997.2
2023-03-11T05:36:32.013Z,997.21
2023-03-11T05:37:12.531Z,997.2
2023-03-11T05:37:53.026Z,997.2
2023-03-11T05:41:46.979Z,997.28
2023-03-11T05:42:27.542Z,997.25
2023-03-11T05:43:08.092Z,997.28
2023-03-11T05:43:48.614Z,997.28
2023-03-11T05:44:29.166Z,997.27
2023-03-11T05:45:09.662Z,997.27
2023-03-11T05:45:50.201Z,997.31
2023-03-11T05:46:30.761Z,997.34
2023-03-11T05:47:11.245Z,997.33
2023-03-11T05:47:51.768Z,997.38
2023-03-11T05:48:32.269Z,997.35
2023-03-11T05:49:12.797Z,997.37
2023-03-11T05:49:53.284Z,997.38
2023-03-11T05:50:33.833Z,997.36
2023-03-11T05:51:14.343Z,997.33
2023-03-11T05:51:56.777Z,997.33
2023-03-11T05:52:35.381Z,997.33
2023-03-11T05:53:15.865Z,997.32
2023-03-11T05:53:56.399Z,997.38
2023-03-11T05:54:37.597Z,997.42
2023-03-11T05:55:18.115Z,997.39
2023-03-11T05:55:58.697Z,997.42
2023-03-11T05:56:39.210Z,997.41
2023-03-11T05:57:19.760Z,997.42
2023-03-11T05:58:00.316Z,997.41
2023-03-11T05:58:40.848Z,997.39
2023-03-11T05:59:21.437Z,997.37
2023-03-11T06:00:01.946Z,997.44
2023-03-11T06:00:42.514Z,997.4
2023-03-11T06:01:23.065Z,997.38
2023-03-11T06:03:20.710Z,997.26
2023-03-11T06:04:01.365Z,997.28
2023-03-11T06:04:41.935Z,997.29
2023-03-11T06:05:22.322Z,997.32
2023-03-11T06:06:02.766Z,997.29
2023-03-11T06:06:43.285Z,997.3
2023-03-11T06:07:23.833Z,997.31
2023-03-11T06:08:04.328Z,997.31
2023-03-11T06:08:44.826Z,997.27
2023-03-11T06:09:25.362Z,997.26
2023-03-11T06:10:05.961Z,997.3
2023-03-11T06:10:48.840Z,997.21
2023-03-11T06:11:27.042Z,997.23
2023-03-11T06:12:07.613Z,997.23
2023-03-11T06:12:49.137Z,997.27
2023-03-11T06:13:29.670Z,997.21
2023-03-11T06:14:11.105Z,997.24
2023-03-11T06:14:51.611Z,997.23
2023-03-11T06:15:32.132Z,997.29
2023-03-11T06:16:12.751Z,997.29
2023-03-11T06:16:53.249Z,997.3
2023-03-11T06:17:34.588Z,997.34
2023-03-11T06:18:15.128Z,997.35
2023-03-11T06:18:55.646Z,997.35
2023-03-11T06:19:36.197Z,997.35
2023-03-11T06:20:16.746Z,997.44
2023-03-11T06:20:57.313Z,997.46
2023-03-11T06:21:37.853Z,997.44
2023-03-11T06:22:18.397Z,997.48
2023-03-11T06:22:58.989Z,997.5
2023-03-11T06:23:39.473Z,997.46
2023-03-11T06:24:19.972Z,997.49
2023-03-11T06:25:00.531Z,997.52
2023-03-11T06:25:41.102Z,997.49
2023-03-11T06:27:54.350Z,997.61
2023-03-11T06:28:34.861Z,997.61
2023-03-11T06:29:15.378Z,997.65
2023-03-11T06:29:55.945Z,997.69
2023-03-11T06:30:36.466Z,997.67
2023-03-11T06:31:17.033Z,997.66
2023-03-11T06:31:57.668Z,997.69
2023-03-11T06:32:38.108Z,997.72
2023-03-11T06:33:18.670Z,997.72
2023-03-11T06:33:59.157Z,997.71
2023-03-11T06:34:39.683Z,997.66
2023-03-11T06:35:20.230Z,997.74
2023-03-11T06:36:00.809Z,997.71
2023-03-11T06:36:41.310Z,997.7
2023-03-11T06:37:21.849Z,997.74
2023-03-11T06:38:02.382Z,997.7
2023-03-11T06:38:42.876Z,997.72
2023-03-11T06:39:23.426Z,997.71
2023-03-11T06:40:04.640Z,997.7
2023-03-11T06:40:45.161Z,997.77
2023-03-11T06:41:25.804Z,997.78
2023-03-11T06:42:06.344Z,997.85
2023-03-11T06:44:19.474Z,997.87
2023-03-11T06:45:00.028Z,997.84
2023-03-11T06:45:40.630Z,997.82
2023-03-11T06:46:21.235Z,997.87
2023-03-11T06:47:02.529Z,997.85
2023-03-11T06:47:44.019Z,997.9
2023-03-11T06:48:24.520Z,997.92
2023-03-11T06:49:05.069Z,997.93
2023-03-11T06:49:45.622Z,997.93
2023-03-11T06:50:26.184Z,997.94
2023-03-11T06:51:06.723Z,997.94
2023-03-11T06:51:47.309Z,997.92
2023-03-11T06:52:27.927Z,997.91
2023-03-11T06:54:26.123Z,997.91
2023-03-11T06:55:06.645Z,997.98
2023-03-11T06:55:47.202Z,997.99
2023-03-11T06:56:27.777Z,997.99
2023-03-11T06:57:08.293Z,998.01
2023-03-11T06:57:48.808Z,997.95
2023-03-11T06:58:29.336Z,997.99
2023-03-11T06:59:09.878Z,997.96
2023-03-11T06:59:50.443Z,997.97
2023-03-11T07:00:31.060Z,997.97
2023-03-11T07:01:11.571Z,997.99
2023-03-11T07:01:52.044Z,998.02
2023-03-11T07:02:32.591Z,998.01
2023-03-11T07:03:13.158Z,998.03
2023-03-11T07:03:53.750Z,998.07
2023-03-11T07:04:34.245Z,998.03
2023-03-11T07:05:14.801Z,998
2023-03-11T07:05:55.392Z,998.04
2023-03-11T07:06:35.908Z,998.1
2023-03-11T07:07:16.459Z,998.09
2023-03-11T07:07:57.010Z,998.09
2023-03-11T07:08:37.558Z,998.12
2023-03-11T07:09:18.754Z,998.08
2023-03-11T07:09:59.298Z,998.12
2023-03-11T07:10:39.829Z,998.15
2023-03-11T07:11:20.373Z,998.16
2023-03-11T07:12:00.921Z,998.15
2023-03-11T07:12:41.486Z,998.15
2023-03-11T07:13:22.024Z,998.15
2023-03-11T07:14:02.588Z,998.16
2023-03-11T07:14:43.123Z,998.15
2023-03-11T07:16:40.818Z,998.25
2023-03-11T07:17:21.327Z,998.28
2023-03-11T07:18:01.817Z,998.25
2023-03-11T07:18:42.344Z,998.31
2023-03-11T07:19:22.882Z,998.3
2023-03-11T07:20:03.406Z,998.3
2023-03-11T07:20:43.923Z,998.3
2023-03-11T07:21:25.191Z,998.32
2023-03-11T07:22:05.719Z,998.36
2023-03-11T07:22:46.265Z,998.36
2023-03-11T07:23:27.770Z,998.37
2023-03-11T07:24:08.315Z,998.38
2023-03-11T07:24:48.842Z,998.43
2023-03-11T07:25:29.409Z,998.45
2023-03-11T07:26:09.976Z,998.5
2023-03-11T07:26:50.494Z,998.48
2023-03-11T07:27:31.853Z,998.49
2023-03-11T07:28:12.364Z,998.51
2023-03-11T07:28:52.899Z,998.51
2023-03-11T07:29:33.415Z,998.53
2023-03-11T07:31:47.008Z,998.54
2023-03-11T07:32:27.533Z,998.56
2023-03-11T07:33:08.047Z,998.63
2023-03-11T07:33:48.596Z,998.6
2023-03-11T07:34:29.658Z,998.58
2023-03-11T07:35:10.212Z,998.63
2023-03-11T07:35:50.800Z,998.63
2023-03-11T07:39:07.311Z,998.62
2023-03-11T07:39:47.852Z,998.66
2023-03-11T07:40:28.352Z,998.7
2023-03-11T07:41:08.974Z,998.71
2023-03-11T07:41:49.454Z,998.69
2023-03-11T07:42:30.004Z,998.72
2023-03-11T07:43:10.506Z,998.69
2023-03-11T07:43:51.022Z,998.71
2023-03-11T07:44:32.113Z,998.71
2023-03-11T07:45:12.687Z,998.69
2023-03-11T07:45:53.246Z,998.73
2023-03-11T07:46:33.732Z,998.73
2023-03-11T07:47:14.265Z,998.71
2023-03-11T07:47:54.774Z,998.72
2023-03-11T07:48:35.327Z,998.74
2023-03-11T07:49:15.839Z,998.76
2023-03-11T07:49:57.361Z,998.77
2023-03-11T07:50:36.978Z,998.78
2023-03-11T07:51:17.539Z,998.81
2023-03-11T07:51:58.065Z,998.82
2023-03-11T07:52:38.592Z,998.87
2023-03-11T07:53:19.136Z,998.91
2023-03-11T07:56:35.572Z,998.96
2023-03-11T07:57:16.069Z,998.93
2023-03-11T07:57:56.585Z,999
2023-03-11T07:58:37.103Z,998.93
2023-03-11T07:59:17.648Z,998.94
2023-03-11T07:59:58.186Z,998.91
2023-03-11T08:00:38.753Z,998.92
2023-03-11T08:01:19.335Z,998.92
2023-03-11T08:01:59.898Z,998.99
2023-03-11T08:02:40.432Z,999.04
2023-03-11T08:03:21.864Z,998.99
2023-03-11T08:04:02.335Z,998.98
2023-03-11T08:04:42.758Z,999
2023-03-11T08:05:23.285Z,999.02
2023-03-11T08:06:03.772Z,999.09
2023-03-11T08:06:44.319Z,999.01
2023-03-11T08:07:24.866Z,999.02
2023-03-11T08:08:05.422Z,999.02
2023-03-11T08:08:46.000Z,999.04
2023-03-11T08:09:26.517Z,999.07
2023-03-11T08:10:07.091Z,999.06
2023-03-11T08:10:48.479Z,999.05
2023-03-11T08:11:29.027Z,999.1
2023-03-11T08:12:09.563Z,999.09
2023-03-11T08:12:50.055Z,999.08
2023-03-11T08:13:30.573Z,999.05
2023-03-11T08:14:11.097Z,999.09
2023-03-11T08:14:52.504Z,999.11
2023-03-11T08:15:33.145Z,999.11
2023-03-11T08:16:13.676Z,999.12
2023-03-11T08:16:54.116Z,999.13
2023-03-11T08:17:34.661Z,999.18
2023-03-11T08:18:15.212Z,999.17
2023-03-11T08:18:55.776Z,999.16
2023-03-11T08:19:36.325Z,999.2
2023-03-11T08:20:17.409Z,999.16
2023-03-11T08:20:57.942Z,999.2
2023-03-11T08:21:38.485Z,999.15
2023-03-11T08:22:19.017Z,999.2
2023-03-11T08:22:59.559Z,999.17
2023-03-11T08:23:40.066Z,999.18
2023-03-11T08:24:20.591Z,999.15
2023-03-11T08:25:01.141Z,999.16
2023-03-11T08:25:41.695Z,999.16
2023-03-11T08:26:22.251Z,999.18
2023-03-11T08:27:02.786Z,999.23
2023-03-11T08:27:43.366Z,999.21
2023-03-11T08:28:23.899Z,999.23
2023-03-11T08:29:04.447Z,999.27
2023-03-11T08:29:45.008Z,999.29
2023-03-11T08:30:25.543Z,999.25
2023-03-11T08:31:06.144Z,999.27
2023-03-11T08:31:46.587Z,999.3
2023-03-11T08:32:27.200Z,999.15
2023-03-11T08:33:07.696Z,999.19
2023-03-11T08:33:48.234Z,999.22
2023-03-11T08:34:28.741Z,999.23
2023-03-11T08:35:09.302Z,999.23
2023-03-11T08:35:49.922Z,999.27
2023-03-11T08:36:30.436Z,999.23
2023-03-11T08:37:10.954Z,999.25
2023-03-11T08:37:51.539Z,999.3
2023-03-11T08:38:32.081Z,999.24
2023-03-11T08:39:12.643Z,999.22
2023-03-11T08:39:53.151Z,999.28
2023-03-11T08:40:33.707Z,999.33
2023-03-11T08:41:14.258Z,999.31
2023-03-11T08:41:54.909Z,999.41
2023-03-11T08:42:37.106Z,999.4
2023-03-11T08:43:15.977Z,999.45
2023-03-11T08:43:56.641Z,999.45
2023-03-11T08:44:37.113Z,999.42
2023-03-11T08:45:17.665Z,999.43
2023-03-11T08:45:58.216Z,999.4
2023-03-11T08:48:12.656Z,999.43
2023-03-11T08:48:53.237Z,999.43
2023-03-11T08:49:33.757Z,999.44
2023-03-11T08:50:14.888Z,999.41
2023-03-11T08:50:55.415Z,999.43
2023-03-11T08:51:35.924Z,999.41
2023-03-11T08:54:05.449Z,999.44
2023-03-11T08:54:45.992Z,999.44
2023-03-11T08:55:26.532Z,999.47
2023-03-11T08:56:07.650Z,999.44
2023-03-11T08:56:48.155Z,999.48
2023-03-11T08:57:28.705Z,999.44
2023-03-11T08:58:09.246Z,999.46
2023-03-11T09:03:21.401Z,999.56
2023-03-11T09:04:01.923Z,999.61
2023-03-11T09:04:42.468Z,999.61
2023-03-11T09:05:22.976Z,999.63
2023-03-11T09:06:03.511Z,999.65
2023-03-11T09:08:17.096Z,999.62
2023-03-11T09:08:57.650Z,999.59
2023-03-11T09:09:38.203Z,999.56
2023-03-11T09:10:20.546Z,999.61
2023-03-11T09:12:19.699Z,999.59
2023-03-11T09:13:00.205Z,999.58
2023-03-11T09:13:40.788Z,999.64
2023-03-11T09:14:21.351Z,999.59
2023-03-11T09:15:02.645Z,999.6
2023-03-11T09:15:43.206Z,999.62
2023-03-11T09:16:23.759Z,999.64
2023-03-11T09:17:04.265Z,999.68
2023-03-11T09:17:44.800Z,999.65
2023-03-11T09:18:25.353Z,999.64
2023-03-11T09:19:05.848Z,999.63
2023-03-11T09:19:47.088Z,999.62
2023-03-11T09:20:27.638Z,999.65
2023-03-11T09:21:09.006Z,999.64
2023-03-11T09:21:49.550Z,999.63
2023-03-11T09:22:30.110Z,999.65
2023-03-11T09:24:43.164Z,999.53
2023-03-11T09:25:23.729Z,999.47
2023-03-11T09:26:04.252Z,999.46
2023-03-11T09:26:44.791Z,999.44
2023-03-11T09:27:25.339Z,999.46
2023-03-11T09:29:38.104Z,999.49
2023-03-11T09:30:19.598Z,999.47
2023-03-11T09:31:00.135Z,999.48
2023-03-11T09:31:40.712Z,999.42
2023-03-11T09:32:21.171Z,999.42
2023-03-11T09:33:01.677Z,999.43
2023-03-11T09:33:42.241Z,999.45
2023-03-11T09:34:22.698Z,999.44
2023-03-11T09:35:03.226Z,999.43
2023-03-11T09:35:43.792Z,999.43
2023-03-11T09:36:24.247Z,999.4
2023-03-11T09:37:05.299Z,999.36
2023-03-11T09:37:45.804Z,999.37
2023-03-11T09:39:44.986Z,999.36
2023-03-11T09:40:25.641Z,999.39
2023-03-11T09:41:06.079Z,999.36
2023-03-11T09:41:57.344Z,999.39
2023-03-11T09:42:27.109Z,999.47
2023-03-11T09:43:07.636Z,999.49
2023-03-11T09:43:48.172Z,999.51
2023-03-11T09:44:30.002Z,999.53